sensor_id;sensor_type;location;lat;lon;timestamp;P1;durP1;ratioP1;P2;durP2;ratioP2
18883;SDS011;9574;47.282;9.640;2024-02-15T00:01:33;5.73;;;2.47;;
18883;SDS011;9574;47.282;9.640;2024-02-15T00:04:02;3.67;;;2.10;;
18883;SDS011;9574;47.282;9.640;2024-02-15T00:06:29;4.10;;;2.07;;
18883;SDS011;9574;47.282;9.640;2024-02-15T00:08:55;8.23;;;2.70;;
18883;SDS011;9574;47.282;9.640;2024-02-15T00:11:22;5.10;;;3.10;;
18883;SDS011;9574;47.282;9.640;2024-02-15T00:13:49;4.03;;;2.27;;
18883;SDS011;9574;47.282;9.640;2024-02-15T00:16:17;4.13;;;2.13;;
18883;SDS011;9574;47.282;9.640;2024-02-15T00:18:44;4.40;;;2.50;;
18883;SDS011;9574;47.282;9.640;2024-02-15T00:21:13;4.90;;;2.07;;
18883;SDS011;9574;47.282;9.640;2024-02-15T00:23:41;2.47;;;1.70;;
18883;SDS011;9574;47.282;9.640;2024-02-15T00:26:08;4.93;;;2.33;;
18883;SDS011;9574;47.282;9.640;2024-02-15T00:28:36;7.70;;;2.17;;
18883;SDS011;9574;47.282;9.640;2024-02-15T00:31:03;3.17;;;1.90;;
18883;SDS011;9574;47.282;9.640;2024-02-15T00:33:30;3.73;;;2.37;;
18883;SDS011;9574;47.282;9.640;2024-02-15T00:35:57;3.27;;;2.33;;
18883;SDS011;9574;47.282;9.640;2024-02-15T00:38:26;4.33;;;2.57;;
18883;SDS011;9574;47.282;9.640;2024-02-15T00:40:53;2.87;;;2.10;;
18883;SDS011;9574;47.282;9.640;2024-02-15T00:43:20;5.90;;;2.20;;
18883;SDS011;9574;47.282;9.640;2024-02-15T00:45:46;7.57;;;2.20;;
18883;SDS011;9574;47.282;9.640;2024-02-15T00:48:13;6.77;;;3.00;;
18883;SDS011;9574;47.282;9.640;2024-02-15T00:50:40;5.37;;;3.00;;
18883;SDS011;9574;47.282;9.640;2024-02-15T00:53:07;7.90;;;3.20;;
18883;SDS011;9574;47.282;9.640;2024-02-15T00:55:36;6.00;;;3.23;;
18883;SDS011;9574;47.282;9.640;2024-02-15T00:58:03;5.57;;;3.20;;
18883;SDS011;9574;47.282;9.640;2024-02-15T01:00:30;5.37;;;2.87;;
18883;SDS011;9574;47.282;9.640;2024-02-15T01:02:56;2.80;;;1.83;;
18883;SDS011;9574;47.282;9.640;2024-02-15T01:05:24;3.40;;;2.10;;
18883;SDS011;9574;47.282;9.640;2024-02-15T01:07:51;2.63;;;2.03;;
18883;SDS011;9574;47.282;9.640;2024-02-15T01:10:20;3.73;;;2.03;;
18883;SDS011;9574;47.282;9.640;2024-02-15T01:12:50;2.67;;;1.80;;
18883;SDS011;9574;47.282;9.640;2024-02-15T01:15:17;4.33;;;2.30;;
18883;SDS011;9574;47.282;9.640;2024-02-15T01:17:45;4.03;;;1.90;;
18883;SDS011;9574;47.282;9.640;2024-02-15T01:20:13;3.30;;;1.70;;
18883;SDS011;9574;47.282;9.640;2024-02-15T01:22:40;5.97;;;1.70;;
18883;SDS011;9574;47.282;9.640;2024-02-15T01:25:09;2.63;;;1.57;;
18883;SDS011;9574;47.282;9.640;2024-02-15T01:27:36;2.47;;;1.30;;
18883;SDS011;9574;47.282;9.640;2024-02-15T01:30:06;3.83;;;2.03;;
18883;SDS011;9574;47.282;9.640;2024-02-15T01:32:33;2.43;;;1.70;;
18883;SDS011;9574;47.282;9.640;2024-02-15T01:35:00;3.23;;;1.87;;
18883;SDS011;9574;47.282;9.640;2024-02-15T01:37:28;4.27;;;2.13;;
18883;SDS011;9574;47.282;9.640;2024-02-15T01:39:55;4.50;;;2.07;;
18883;SDS011;9574;47.282;9.640;2024-02-15T01:42:22;2.10;;;1.73;;
18883;SDS011;9574;47.282;9.640;2024-02-15T01:44:49;2.60;;;1.80;;
18883;SDS011;9574;47.282;9.640;2024-02-15T01:47:19;3.37;;;1.90;;
18883;SDS011;9574;47.282;9.640;2024-02-15T01:49:47;2.43;;;1.80;;
18883;SDS011;9574;47.282;9.640;2024-02-15T01:52:15;4.17;;;1.60;;
18883;SDS011;9574;47.282;9.640;2024-02-15T01:54:43;2.23;;;1.53;;
18883;SDS011;9574;47.282;9.640;2024-02-15T01:57:11;3.10;;;1.70;;
18883;SDS011;9574;47.282;9.640;2024-02-15T01:59:38;1.83;;;1.30;;
18883;SDS011;9574;47.282;9.640;2024-02-15T02:02:05;1.73;;;1.37;;
18883;SDS011;9574;47.282;9.640;2024-02-15T02:04:38;2.53;;;1.40;;
18883;SDS011;9574;47.282;9.640;2024-02-15T02:07:07;3.20;;;1.47;;
18883;SDS011;9574;47.282;9.640;2024-02-15T02:09:34;2.63;;;1.70;;
18883;SDS011;9574;47.282;9.640;2024-02-15T02:12:01;3.87;;;1.63;;
18883;SDS011;9574;47.282;9.640;2024-02-15T02:14:28;2.43;;;1.60;;
18883;SDS011;9574;47.282;9.640;2024-02-15T02:16:58;2.40;;;1.70;;
18883;SDS011;9574;47.282;9.640;2024-02-15T02:19:38;2.07;;;1.53;;
18883;SDS011;9574;47.282;9.640;2024-02-15T02:22:05;1.37;;;1.27;;
18883;SDS011;9574;47.282;9.640;2024-02-15T02:24:35;3.40;;;1.70;;
18883;SDS011;9574;47.282;9.640;2024-02-15T02:27:13;1.90;;;1.70;;
18883;SDS011;9574;47.282;9.640;2024-02-15T02:29:42;3.60;;;1.93;;
18883;SDS011;9574;47.282;9.640;2024-02-15T02:32:10;2.90;;;2.10;;
18883;SDS011;9574;47.282;9.640;2024-02-15T02:34:37;5.00;;;2.10;;
18883;SDS011;9574;47.282;9.640;2024-02-15T02:37:06;5.40;;;2.30;;
18883;SDS011;9574;47.282;9.640;2024-02-15T02:39:33;2.43;;;1.67;;
18883;SDS011;9574;47.282;9.640;2024-02-15T02:42:01;3.90;;;2.00;;
18883;SDS011;9574;47.282;9.640;2024-02-15T02:44:29;2.70;;;2.10;;
18883;SDS011;9574;47.282;9.640;2024-02-15T02:46:56;4.50;;;1.90;;
18883;SDS011;9574;47.282;9.640;2024-02-15T02:49:23;4.73;;;1.87;;
18883;SDS011;9574;47.282;9.640;2024-02-15T02:51:50;4.50;;;2.30;;
18883;SDS011;9574;47.282;9.640;2024-02-15T02:54:17;2.93;;;1.70;;
18883;SDS011;9574;47.282;9.640;2024-02-15T02:56:44;3.60;;;1.80;;
18883;SDS011;9574;47.282;9.640;2024-02-15T02:59:11;3.17;;;2.00;;
18883;SDS011;9574;47.282;9.640;2024-02-15T03:01:39;3.67;;;1.83;;
18883;SDS011;9574;47.282;9.640;2024-02-15T03:04:07;3.97;;;2.10;;
18883;SDS011;9574;47.282;9.640;2024-02-15T03:06:34;5.10;;;2.27;;
18883;SDS011;9574;47.282;9.640;2024-02-15T03:09:03;3.80;;;1.87;;
18883;SDS011;9574;47.282;9.640;2024-02-15T03:11:32;4.07;;;2.10;;
18883;SDS011;9574;47.282;9.640;2024-02-15T03:14:01;2.30;;;1.73;;
18883;SDS011;9574;47.282;9.640;2024-02-15T03:16:29;3.80;;;1.90;;
18883;SDS011;9574;47.282;9.640;2024-02-15T03:18:57;3.00;;;2.20;;
18883;SDS011;9574;47.282;9.640;2024-02-15T03:21:26;2.47;;;1.80;;
18883;SDS011;9574;47.282;9.640;2024-02-15T03:23:53;2.23;;;1.80;;
18883;SDS011;9574;47.282;9.640;2024-02-15T03:26:26;2.33;;;1.33;;
18883;SDS011;9574;47.282;9.640;2024-02-15T03:28:56;2.00;;;1.30;;
18883;SDS011;9574;47.282;9.640;2024-02-15T03:31:23;2.23;;;1.20;;
18883;SDS011;9574;47.282;9.640;2024-02-15T03:33:50;4.57;;;1.50;;
18883;SDS011;9574;47.282;9.640;2024-02-15T03:36:19;1.70;;;1.47;;
18883;SDS011;9574;47.282;9.640;2024-02-15T03:38:46;3.90;;;1.37;;
18883;SDS011;9574;47.282;9.640;2024-02-15T03:41:13;1.70;;;1.23;;
18883;SDS011;9574;47.282;9.640;2024-02-15T03:43:40;2.80;;;1.50;;
18883;SDS011;9574;47.282;9.640;2024-02-15T03:46:08;1.97;;;1.27;;
18883;SDS011;9574;47.282;9.640;2024-02-15T03:48:37;2.20;;;1.30;;
18883;SDS011;9574;47.282;9.640;2024-02-15T03:51:06;2.30;;;1.47;;
18883;SDS011;9574;47.282;9.640;2024-02-15T03:53:35;2.37;;;1.33;;
18883;SDS011;9574;47.282;9.640;2024-02-15T03:56:03;3.67;;;1.60;;
18883;SDS011;9574;47.282;9.640;2024-02-15T03:58:30;1.97;;;1.20;;
18883;SDS011;9574;47.282;9.640;2024-02-15T04:00:58;3.83;;;1.67;;
18883;SDS011;9574;47.282;9.640;2024-02-15T04:03:25;2.63;;;1.63;;
18883;SDS011;9574;47.282;9.640;2024-02-15T04:05:52;2.77;;;1.43;;
18883;SDS011;9574;47.282;9.640;2024-02-15T04:08:20;2.90;;;1.60;;
18883;SDS011;9574;47.282;9.640;2024-02-15T04:10:48;2.30;;;1.60;;
18883;SDS011;9574;47.282;9.640;2024-02-15T04:13:16;2.90;;;1.50;;
18883;SDS011;9574;47.282;9.640;2024-02-15T04:15:42;5.23;;;2.37;;
18883;SDS011;9574;47.282;9.640;2024-02-15T04:18:12;3.50;;;1.90;;
18883;SDS011;9574;47.282;9.640;2024-02-15T04:20:39;3.50;;;1.97;;
18883;SDS011;9574;47.282;9.640;2024-02-15T04:23:10;3.87;;;2.20;;
18883;SDS011;9574;47.282;9.640;2024-02-15T04:25:37;3.83;;;1.70;;
18883;SDS011;9574;47.282;9.640;2024-02-15T04:28:05;4.10;;;1.73;;
18883;SDS011;9574;47.282;9.640;2024-02-15T04:30:34;1.53;;;1.40;;
18883;SDS011;9574;47.282;9.640;2024-02-15T04:33:03;3.63;;;1.50;;
18883;SDS011;9574;47.282;9.640;2024-02-15T04:35:31;1.67;;;1.47;;
18883;SDS011;9574;47.282;9.640;2024-02-15T04:37:58;4.03;;;2.87;;
18883;SDS011;9574;47.282;9.640;2024-02-15T04:40:25;3.23;;;2.00;;
18883;SDS011;9574;47.282;9.640;2024-02-15T04:42:52;6.30;;;2.10;;
18883;SDS011;9574;47.282;9.640;2024-02-15T04:45:20;3.33;;;2.17;;
18883;SDS011;9574;47.282;9.640;2024-02-15T04:47:48;4.80;;;2.10;;
18883;SDS011;9574;47.282;9.640;2024-02-15T04:50:17;3.03;;;1.90;;
18883;SDS011;9574;47.282;9.640;2024-02-15T04:52:46;2.63;;;1.97;;
18883;SDS011;9574;47.282;9.640;2024-02-15T04:55:14;2.17;;;1.40;;
18883;SDS011;9574;47.282;9.640;2024-02-15T04:57:43;2.53;;;1.80;;
18883;SDS011;9574;47.282;9.640;2024-02-15T05:00:12;2.47;;;1.50;;
18883;SDS011;9574;47.282;9.640;2024-02-15T05:02:41;2.97;;;1.83;;
18883;SDS011;9574;47.282;9.640;2024-02-15T05:05:09;3.23;;;1.80;;
18883;SDS011;9574;47.282;9.640;2024-02-15T05:07:37;2.27;;;1.80;;
18883;SDS011;9574;47.282;9.640;2024-02-15T05:10:06;4.03;;;1.60;;
18883;SDS011;9574;47.282;9.640;2024-02-15T05:12:34;2.77;;;1.70;;
18883;SDS011;9574;47.282;9.640;2024-02-15T05:15:00;2.50;;;1.40;;
18883;SDS011;9574;47.282;9.640;2024-02-15T05:17:34;1.90;;;1.70;;
18883;SDS011;9574;47.282;9.640;2024-02-15T05:20:03;2.63;;;1.70;;
18883;SDS011;9574;47.282;9.640;2024-02-15T05:22:36;3.67;;;1.87;;
18883;SDS011;9574;47.282;9.640;2024-02-15T05:25:04;2.23;;;1.50;;
18883;SDS011;9574;47.282;9.640;2024-02-15T05:27:32;3.87;;;1.80;;
18883;SDS011;9574;47.282;9.640;2024-02-15T05:30:01;2.83;;;1.70;;
18883;SDS011;9574;47.282;9.640;2024-02-15T05:32:31;2.10;;;1.60;;
18883;SDS011;9574;47.282;9.640;2024-02-15T05:34:59;3.83;;;2.37;;
18883;SDS011;9574;47.282;9.640;2024-02-15T05:37:28;4.17;;;2.33;;
18883;SDS011;9574;47.282;9.640;2024-02-15T05:39:55;3.63;;;2.20;;
18883;SDS011;9574;47.282;9.640;2024-02-15T05:42:22;4.63;;;2.20;;
18883;SDS011;9574;47.282;9.640;2024-02-15T05:44:49;3.07;;;1.97;;
18883;SDS011;9574;47.282;9.640;2024-02-15T05:47:16;3.17;;;1.80;;
18883;SDS011;9574;47.282;9.640;2024-02-15T05:49:44;2.17;;;1.63;;
18883;SDS011;9574;47.282;9.640;2024-02-15T05:52:12;2.53;;;1.60;;
18883;SDS011;9574;47.282;9.640;2024-02-15T05:54:40;2.13;;;1.60;;
18883;SDS011;9574;47.282;9.640;2024-02-15T05:57:07;3.93;;;1.90;;
18883;SDS011;9574;47.282;9.640;2024-02-15T05:59:34;6.37;;;2.00;;
18883;SDS011;9574;47.282;9.640;2024-02-15T06:02:01;1.50;;;1.27;;
18883;SDS011;9574;47.282;9.640;2024-02-15T06:04:29;16.10;;;2.50;;
18883;SDS011;9574;47.282;9.640;2024-02-15T06:06:56;4.07;;;1.57;;
18883;SDS011;9574;47.282;9.640;2024-02-15T06:09:26;2.70;;;1.40;;
18883;SDS011;9574;47.282;9.640;2024-02-15T06:11:56;2.47;;;1.63;;
18883;SDS011;9574;47.282;9.640;2024-02-15T06:14:23;2.80;;;1.80;;
18883;SDS011;9574;47.282;9.640;2024-02-15T06:16:50;21.30;;;6.50;;
18883;SDS011;9574;47.282;9.640;2024-02-15T06:19:20;10.33;;;4.27;;
18883;SDS011;9574;47.282;9.640;2024-02-15T06:21:47;4.03;;;2.90;;
18883;SDS011;9574;47.282;9.640;2024-02-15T06:24:14;4.70;;;2.30;;
18883;SDS011;9574;47.282;9.640;2024-02-15T06:26:41;8.63;;;2.27;;
18883;SDS011;9574;47.282;9.640;2024-02-15T06:29:09;5.30;;;2.20;;
18883;SDS011;9574;47.282;9.640;2024-02-15T06:31:54;2.90;;;1.60;;
18883;SDS011;9574;47.282;9.640;2024-02-15T06:34:38;7.47;;;2.60;;
18883;SDS011;9574;47.282;9.640;2024-02-15T06:40:27;9.27;;;3.33;;
18883;SDS011;9574;47.282;9.640;2024-02-15T06:42:56;8.17;;;2.97;;
18883;SDS011;9574;47.282;9.640;2024-02-15T06:45:24;6.53;;;2.70;;
18883;SDS011;9574;47.282;9.640;2024-02-15T06:47:51;8.17;;;4.17;;
18883;SDS011;9574;47.282;9.640;2024-02-15T06:50:18;15.47;;;6.67;;
18883;SDS011;9574;47.282;9.640;2024-02-15T06:52:45;10.30;;;4.97;;
18883;SDS011;9574;47.282;9.640;2024-02-15T06:55:14;8.00;;;4.33;;
18883;SDS011;9574;47.282;9.640;2024-02-15T06:57:42;6.03;;;2.87;;
18883;SDS011;9574;47.282;9.640;2024-02-15T07:00:09;6.80;;;4.03;;
18883;SDS011;9574;47.282;9.640;2024-02-15T07:02:41;7.47;;;3.57;;
18883;SDS011;9574;47.282;9.640;2024-02-15T07:05:09;5.67;;;3.90;;
18883;SDS011;9574;47.282;9.640;2024-02-15T07:07:37;8.63;;;5.43;;
18883;SDS011;9574;47.282;9.640;2024-02-15T07:10:08;12.07;;;5.70;;
18883;SDS011;9574;47.282;9.640;2024-02-15T07:12:35;8.27;;;4.40;;
18883;SDS011;9574;47.282;9.640;2024-02-15T07:15:03;5.57;;;3.77;;
18883;SDS011;9574;47.282;9.640;2024-02-15T07:17:32;5.10;;;3.47;;
18883;SDS011;9574;47.282;9.640;2024-02-15T07:20:00;5.17;;;3.43;;
18883;SDS011;9574;47.282;9.640;2024-02-15T07:22:30;4.63;;;3.30;;
18883;SDS011;9574;47.282;9.640;2024-02-15T07:24:57;5.30;;;3.10;;
18883;SDS011;9574;47.282;9.640;2024-02-15T07:27:25;6.67;;;2.60;;
18883;SDS011;9574;47.282;9.640;2024-02-15T07:29:52;4.03;;;2.73;;
18883;SDS011;9574;47.282;9.640;2024-02-15T07:32:19;5.23;;;2.73;;
18883;SDS011;9574;47.282;9.640;2024-02-15T07:34:46;3.80;;;2.77;;
18883;SDS011;9574;47.282;9.640;2024-02-15T07:37:14;5.50;;;2.90;;
18883;SDS011;9574;47.282;9.640;2024-02-15T07:39:41;7.50;;;3.10;;
18883;SDS011;9574;47.282;9.640;2024-02-15T07:42:08;4.47;;;2.90;;
18883;SDS011;9574;47.282;9.640;2024-02-15T07:44:35;3.17;;;2.37;;
18883;SDS011;9574;47.282;9.640;2024-02-15T07:47:02;6.57;;;2.63;;
18883;SDS011;9574;47.282;9.640;2024-02-15T07:49:30;4.83;;;2.27;;
18883;SDS011;9574;47.282;9.640;2024-02-15T07:51:58;6.87;;;4.43;;
18883;SDS011;9574;47.282;9.640;2024-02-15T07:54:27;5.90;;;3.53;;
18883;SDS011;9574;47.282;9.640;2024-02-15T07:56:54;2.93;;;2.17;;
18883;SDS011;9574;47.282;9.640;2024-02-15T07:59:23;3.20;;;2.20;;
18883;SDS011;9574;47.282;9.640;2024-02-15T08:01:50;3.27;;;1.80;;
18883;SDS011;9574;47.282;9.640;2024-02-15T08:04:17;2.23;;;2.00;;
18883;SDS011;9574;47.282;9.640;2024-02-15T08:06:45;3.00;;;2.00;;
18883;SDS011;9574;47.282;9.640;2024-02-15T08:09:14;2.80;;;1.60;;
18883;SDS011;9574;47.282;9.640;2024-02-15T08:11:44;2.93;;;1.60;;
18883;SDS011;9574;47.282;9.640;2024-02-15T08:14:11;3.67;;;1.77;;
18883;SDS011;9574;47.282;9.640;2024-02-15T08:16:38;2.57;;;2.33;;
18883;SDS011;9574;47.282;9.640;2024-02-15T08:19:05;8.70;;;2.40;;
18883;SDS011;9574;47.282;9.640;2024-02-15T08:21:33;3.00;;;2.23;;
18883;SDS011;9574;47.282;9.640;2024-02-15T08:24:02;4.27;;;2.30;;
18883;SDS011;9574;47.282;9.640;2024-02-15T08:26:31;3.27;;;1.90;;
18883;SDS011;9574;47.282;9.640;2024-02-15T08:28:59;4.00;;;2.30;;
18883;SDS011;9574;47.282;9.640;2024-02-15T08:31:28;2.80;;;2.30;;
18883;SDS011;9574;47.282;9.640;2024-02-15T08:33:56;4.33;;;2.33;;
18883;SDS011;9574;47.282;9.640;2024-02-15T08:36:23;3.60;;;2.57;;
18883;SDS011;9574;47.282;9.640;2024-02-15T08:38:50;5.03;;;2.80;;
18883;SDS011;9574;47.282;9.640;2024-02-15T08:41:17;2.60;;;1.60;;
18883;SDS011;9574;47.282;9.640;2024-02-15T08:43:45;2.83;;;1.90;;
18883;SDS011;9574;47.282;9.640;2024-02-15T08:46:14;3.07;;;1.50;;
18883;SDS011;9574;47.282;9.640;2024-02-15T08:48:41;4.10;;;3.70;;
18883;SDS011;9574;47.282;9.640;2024-02-15T08:51:09;4.17;;;3.60;;
18883;SDS011;9574;47.282;9.640;2024-02-15T08:53:37;4.00;;;2.40;;
18883;SDS011;9574;47.282;9.640;2024-02-15T08:56:04;3.23;;;1.90;;
18883;SDS011;9574;47.282;9.640;2024-02-15T08:58:31;2.10;;;1.57;;
18883;SDS011;9574;47.282;9.640;2024-02-15T09:00:58;3.07;;;1.80;;
18883;SDS011;9574;47.282;9.640;2024-02-15T09:03:26;1.50;;;1.30;;
18883;SDS011;9574;47.282;9.640;2024-02-15T09:05:53;5.87;;;1.20;;
18883;SDS011;9574;47.282;9.640;2024-02-15T09:08:20;2.03;;;1.47;;
18883;SDS011;9574;47.282;9.640;2024-02-15T09:10:48;2.27;;;1.33;;
18883;SDS011;9574;47.282;9.640;2024-02-15T09:13:17;2.63;;;1.70;;
18883;SDS011;9574;47.282;9.640;2024-02-15T09:15:44;2.43;;;1.80;;
18883;SDS011;9574;47.282;9.640;2024-02-15T09:18:12;5.37;;;1.70;;
18883;SDS011;9574;47.282;9.640;2024-02-15T09:20:41;3.27;;;1.93;;
18883;SDS011;9574;47.282;9.640;2024-02-15T09:23:10;2.77;;;1.50;;
18883;SDS011;9574;47.282;9.640;2024-02-15T09:25:38;2.07;;;1.63;;
18883;SDS011;9574;47.282;9.640;2024-02-15T09:28:05;3.13;;;1.40;;
18883;SDS011;9574;47.282;9.640;2024-02-15T09:30:33;2.97;;;1.80;;
18883;SDS011;9574;47.282;9.640;2024-02-15T09:33:00;3.37;;;1.60;;
18883;SDS011;9574;47.282;9.640;2024-02-15T09:35:30;2.20;;;1.53;;
18883;SDS011;9574;47.282;9.640;2024-02-15T09:37:58;2.30;;;1.37;;
18883;SDS011;9574;47.282;9.640;2024-02-15T09:40:25;1.53;;;1.17;;
18883;SDS011;9574;47.282;9.640;2024-02-15T09:42:54;3.17;;;1.43;;
18883;SDS011;9574;47.282;9.640;2024-02-15T09:45:21;1.27;;;0.93;;
18883;SDS011;9574;47.282;9.640;2024-02-15T09:47:50;3.17;;;1.07;;
18883;SDS011;9574;47.282;9.640;2024-02-15T09:50:18;1.23;;;1.10;;
18883;SDS011;9574;47.282;9.640;2024-02-15T09:52:45;2.93;;;1.47;;
18883;SDS011;9574;47.282;9.640;2024-02-15T09:55:17;3.43;;;1.40;;
18883;SDS011;9574;47.282;9.640;2024-02-15T09:57:44;3.73;;;1.47;;
18883;SDS011;9574;47.282;9.640;2024-02-15T10:00:13;2.07;;;1.33;;
18883;SDS011;9574;47.282;9.640;2024-02-15T10:02:42;2.83;;;1.60;;
18883;SDS011;9574;47.282;9.640;2024-02-15T10:05:10;8.47;;;1.40;;
18883;SDS011;9574;47.282;9.640;2024-02-15T10:07:37;6.33;;;1.53;;
18883;SDS011;9574;47.282;9.640;2024-02-15T10:10:14;2.70;;;1.55;;
18883;SDS011;9574;47.282;9.640;2024-02-15T10:12:44;1.47;;;1.37;;
18883;SDS011;9574;47.282;9.640;2024-02-15T10:15:26;1.40;;;1.10;;
18883;SDS011;9574;47.282;9.640;2024-02-15T10:17:54;2.53;;;1.20;;
18883;SDS011;9574;47.282;9.640;2024-02-15T10:20:21;1.97;;;1.37;;
18883;SDS011;9574;47.282;9.640;2024-02-15T10:22:50;1.80;;;1.20;;
18883;SDS011;9574;47.282;9.640;2024-02-15T10:25:20;4.60;;;1.10;;
18883;SDS011;9574;47.282;9.640;2024-02-15T10:27:48;2.20;;;1.00;;
18883;SDS011;9574;47.282;9.640;2024-02-15T10:30:15;1.67;;;1.08;;
18883;SDS011;9574;47.282;9.640;2024-02-15T10:32:44;5.82;;;1.08;;
18883;SDS011;9574;47.282;9.640;2024-02-15T10:35:18;1.45;;;1.20;;
18883;SDS011;9574;47.282;9.640;2024-02-15T10:37:47;1.52;;;1.27;;
18883;SDS011;9574;47.282;9.640;2024-02-15T10:40:17;1.55;;;1.02;;
18883;SDS011;9574;47.282;9.640;2024-02-15T10:42:45;2.15;;;0.93;;
18883;SDS011;9574;47.282;9.640;2024-02-15T10:45:14;1.70;;;1.08;;
18883;SDS011;9574;47.282;9.640;2024-02-15T10:47:43;3.58;;;1.15;;
18883;SDS011;9574;47.282;9.640;2024-02-15T10:50:12;3.33;;;1.35;;
18883;SDS011;9574;47.282;9.640;2024-02-15T10:52:42;1.50;;;1.00;;
18883;SDS011;9574;47.282;9.640;2024-02-15T10:55:14;2.72;;;0.90;;
18883;SDS011;9574;47.282;9.640;2024-02-15T10:57:53;1.90;;;1.08;;
18883;SDS011;9574;47.282;9.640;2024-02-15T11:00:22;2.88;;;1.23;;
18883;SDS011;9574;47.282;9.640;2024-02-15T11:02:58;1.30;;;1.10;;
18883;SDS011;9574;47.282;9.640;2024-02-15T11:05:31;1.73;;;1.00;;
18883;SDS011;9574;47.282;9.640;2024-02-15T11:08:04;1.85;;;1.17;;
18883;SDS011;9574;47.282;9.640;2024-02-15T11:10:33;1.77;;;1.00;;
18883;SDS011;9574;47.282;9.640;2024-02-15T11:13:02;2.38;;;1.00;;
18883;SDS011;9574;47.282;9.640;2024-02-15T11:15:45;1.58;;;0.95;;
18883;SDS011;9574;47.282;9.640;2024-02-15T11:21:10;3.85;;;0.90;;
18883;SDS011;9574;47.282;9.640;2024-02-15T11:23:37;1.17;;;0.90;;
18883;SDS011;9574;47.282;9.640;2024-02-15T11:26:08;2.05;;;0.85;;
18883;SDS011;9574;47.282;9.640;2024-02-15T11:28:41;1.70;;;1.13;;
18883;SDS011;9574;47.282;9.640;2024-02-15T11:40:21;1.30;;;0.80;;
18883;SDS011;9574;47.282;9.640;2024-02-15T11:42:49;1.20;;;0.68;;
18883;SDS011;9574;47.282;9.640;2024-02-15T11:45:20;0.50;;;0.50;;
18883;SDS011;9574;47.282;9.640;2024-02-15T11:47:48;3.25;;;0.70;;
18883;SDS011;9574;47.282;9.640;2024-02-15T11:50:16;0.60;;;0.60;;
18883;SDS011;9574;47.282;9.640;2024-02-15T11:52:45;0.50;;;0.50;;
18883;SDS011;9574;47.282;9.640;2024-02-15T11:55:14;0.68;;;0.68;;
18883;SDS011;9574;47.282;9.640;2024-02-15T11:57:44;1.38;;;0.57;;
18883;SDS011;9574;47.282;9.640;2024-02-15T12:00:29;2.65;;;0.73;;
18883;SDS011;9574;47.282;9.640;2024-02-15T12:03:14;1.60;;;0.65;;
18883;SDS011;9574;47.282;9.640;2024-02-15T12:05:58;1.52;;;0.85;;
18883;SDS011;9574;47.282;9.640;2024-02-15T12:08:43;3.25;;;1.55;;
18883;SDS011;9574;47.282;9.640;2024-02-15T12:11:43;1.40;;;0.70;;
18883;SDS011;9574;47.282;9.640;2024-02-15T12:14:27;1.05;;;0.90;;
18883;SDS011;9574;47.282;9.640;2024-02-15T12:17:13;3.15;;;0.80;;
18883;SDS011;9574;47.282;9.640;2024-02-15T12:19:59;3.10;;;1.00;;
18883;SDS011;9574;47.282;9.640;2024-02-15T12:22:32;1.00;;;0.90;;
18883;SDS011;9574;47.282;9.640;2024-02-15T12:25:00;1.95;;;0.70;;
18883;SDS011;9574;47.282;9.640;2024-02-15T12:27:31;13.15;;;1.65;;
18883;SDS011;9574;47.282;9.640;2024-02-15T12:29:59;1.88;;;0.80;;
18883;SDS011;9574;47.282;9.640;2024-02-15T12:32:28;2.17;;;1.10;;
18883;SDS011;9574;47.282;9.640;2024-02-15T12:35:09;2.95;;;0.90;;
18883;SDS011;9574;47.282;9.640;2024-02-15T12:37:38;3.28;;;0.90;;
18883;SDS011;9574;47.282;9.640;2024-02-15T12:40:16;0.87;;;0.80;;
18883;SDS011;9574;47.282;9.640;2024-02-15T12:42:43;1.70;;;0.80;;
18883;SDS011;9574;47.282;9.640;2024-02-15T12:45:15;0.60;;;0.60;;
18883;SDS011;9574;47.282;9.640;2024-02-15T12:47:47;1.45;;;0.88;;
18883;SDS011;9574;47.282;9.640;2024-02-15T12:50:16;2.42;;;0.70;;
18883;SDS011;9574;47.282;9.640;2024-02-15T12:52:45;2.05;;;0.88;;
18883;SDS011;9574;47.282;9.640;2024-02-15T12:55:13;1.05;;;0.80;;
18883;SDS011;9574;47.282;9.640;2024-02-15T12:57:43;0.82;;;0.60;;
18883;SDS011;9574;47.282;9.640;2024-02-15T13:00:13;1.33;;;0.60;;
18883;SDS011;9574;47.282;9.640;2024-02-15T13:02:44;0.80;;;0.60;;
18883;SDS011;9574;47.282;9.640;2024-02-15T13:05:15;5.82;;;0.82;;
18883;SDS011;9574;47.282;9.640;2024-02-15T13:07:44;0.73;;;0.60;;
18883;SDS011;9574;47.282;9.640;2024-02-15T13:10:11;2.25;;;0.90;;
18883;SDS011;9574;47.282;9.640;2024-02-15T13:12:40;0.70;;;0.70;;
18883;SDS011;9574;47.282;9.640;2024-02-15T13:15:09;1.45;;;1.30;;
18883;SDS011;9574;47.282;9.640;2024-02-15T13:17:40;1.92;;;1.33;;
18883;SDS011;9574;47.282;9.640;2024-02-15T13:20:10;4.25;;;1.30;;
18883;SDS011;9574;47.282;9.640;2024-02-15T13:22:40;1.52;;;1.35;;
18883;SDS011;9574;47.282;9.640;2024-02-15T13:25:09;4.38;;;1.40;;
18883;SDS011;9574;47.282;9.640;2024-02-15T13:27:36;8.45;;;2.08;;
18883;SDS011;9574;47.282;9.640;2024-02-15T13:30:04;2.92;;;1.48;;
18883;SDS011;9574;47.282;9.640;2024-02-15T13:32:34;1.58;;;1.20;;
18883;SDS011;9574;47.282;9.640;2024-02-15T13:35:02;1.45;;;1.20;;
18883;SDS011;9574;47.282;9.640;2024-02-15T13:37:37;3.65;;;1.50;;
18883;SDS011;9574;47.282;9.640;2024-02-15T13:40:10;3.55;;;2.03;;
18883;SDS011;9574;47.282;9.640;2024-02-15T13:42:41;4.43;;;2.28;;
18883;SDS011;9574;47.282;9.640;2024-02-15T13:45:14;3.22;;;2.50;;
18883;SDS011;9574;47.282;9.640;2024-02-15T13:47:43;5.30;;;2.33;;
18883;SDS011;9574;47.282;9.640;2024-02-15T13:50:12;3.08;;;2.00;;
18883;SDS011;9574;47.282;9.640;2024-02-15T13:52:40;5.90;;;2.40;;
18883;SDS011;9574;47.282;9.640;2024-02-15T13:55:10;3.78;;;1.83;;
18883;SDS011;9574;47.282;9.640;2024-02-15T13:57:38;6.18;;;1.85;;
18883;SDS011;9574;47.282;9.640;2024-02-15T14:00:06;3.28;;;1.88;;
18883;SDS011;9574;47.282;9.640;2024-02-15T14:02:38;5.57;;;2.38;;
18883;SDS011;9574;47.282;9.640;2024-02-15T14:05:06;6.70;;;2.50;;
18883;SDS011;9574;47.282;9.640;2024-02-15T14:07:33;6.60;;;2.60;;
18883;SDS011;9574;47.282;9.640;2024-02-15T14:10:03;6.05;;;2.47;;
18883;SDS011;9574;47.282;9.640;2024-02-15T14:12:31;5.35;;;3.00;;
18883;SDS011;9574;47.282;9.640;2024-02-15T14:14:58;4.70;;;3.00;;
18883;SDS011;9574;47.282;9.640;2024-02-15T14:17:25;6.67;;;3.03;;
18883;SDS011;9574;47.282;9.640;2024-02-15T14:19:53;6.88;;;3.67;;
18883;SDS011;9574;47.282;9.640;2024-02-15T14:22:20;8.17;;;3.50;;
18883;SDS011;9574;47.282;9.640;2024-02-15T14:24:49;5.25;;;3.30;;
18883;SDS011;9574;47.282;9.640;2024-02-15T14:27:17;7.37;;;4.10;;
18883;SDS011;9574;47.282;9.640;2024-02-15T14:29:44;5.97;;;3.57;;
18883;SDS011;9574;47.282;9.640;2024-02-15T14:32:31;5.00;;;3.73;;
18883;SDS011;9574;47.282;9.640;2024-02-15T14:35:15;5.57;;;4.00;;
18883;SDS011;9574;47.282;9.640;2024-02-15T14:37:43;7.93;;;4.00;;
18883;SDS011;9574;47.282;9.640;2024-02-15T14:40:11;8.73;;;4.53;;
18883;SDS011;9574;47.282;9.640;2024-02-15T14:42:41;6.35;;;4.15;;
18883;SDS011;9574;47.282;9.640;2024-02-15T14:45:08;7.43;;;3.83;;
18883;SDS011;9574;47.282;9.640;2024-02-15T14:47:36;6.03;;;3.83;;
18883;SDS011;9574;47.282;9.640;2024-02-15T14:50:04;8.13;;;3.57;;
18883;SDS011;9574;47.282;9.640;2024-02-15T14:52:33;13.77;;;4.40;;
18883;SDS011;9574;47.282;9.640;2024-02-15T14:55:01;7.30;;;4.22;;
18883;SDS011;9574;47.282;9.640;2024-02-15T14:57:30;9.57;;;4.10;;
18883;SDS011;9574;47.282;9.640;2024-02-15T14:59:59;5.97;;;4.43;;
18883;SDS011;9574;47.282;9.640;2024-02-15T15:02:26;6.80;;;4.10;;
18883;SDS011;9574;47.282;9.640;2024-02-15T15:04:53;7.90;;;4.07;;
18883;SDS011;9574;47.282;9.640;2024-02-15T15:07:39;7.10;;;4.63;;
18883;SDS011;9574;47.282;9.640;2024-02-15T15:10:32;6.47;;;4.27;;
18883;SDS011;9574;47.282;9.640;2024-02-15T15:13:16;11.77;;;4.50;;
18883;SDS011;9574;47.282;9.640;2024-02-15T15:15:45;6.67;;;4.20;;
18883;SDS011;9574;47.282;9.640;2024-02-15T15:18:13;6.53;;;3.87;;
18883;SDS011;9574;47.282;9.640;2024-02-15T15:20:40;6.13;;;4.00;;
18883;SDS011;9574;47.282;9.640;2024-02-15T15:23:07;5.27;;;3.50;;
18883;SDS011;9574;47.282;9.640;2024-02-15T15:25:34;6.67;;;3.97;;
18883;SDS011;9574;47.282;9.640;2024-02-15T15:28:02;7.57;;;3.47;;